Time;durP1;ratioP1;P1;durP2;ratioP2;P2;SDS_P1;SDS_P2;PMS_P1;PMS_P2;Temp;Humidity;BMP_temperature;BMP_pressure;BME280_temperature;BME280_humidity;BME280_pressure;Samples;Min_cycle;Max_cycle;Signal;HPM_P1;HPM_P2
2023/03/15 00:02:03;;;;;;;40.70;37.97;;;;;;;1.91;88.46;97650.78;5005381;28;20037;-75
2023/03/15 00:04:31;;;;;;;41.80;38.88;;;;;;;1.98;87.87;97658.78;5018334;28;20016;-76
2023/03/15 00:06:56;;;;;;;43.42;40.10;;;;;;;1.75;88.24;97659.13;5006316;28;20033;-75
2023/03/15 00:09:23;;;;;;;43.83;40.95;;;;;;;1.78;88.54;97655.25;5018791;28;20065;-75
2023/03/15 00:11:48;;;;;;;41.80;39.35;;;;;;;1.92;88.29;97662.22;5017937;28;20037;-75
2023/03/15 00:14:14;;;;;;;45.28;42.13;;;;;;;1.98;87.92;97666.75;5037810;28;20029;-76
2023/03/15 00:16:41;;;;;;;42.97;39.72;;;;;;;1.87;88.12;97662.00;5008195;28;20041;-75
2023/03/15 00:19:07;;;;;;;45.97;42.67;;;;;;;2.13;88.27;97670.00;5012267;28;20084;-76
2023/03/15 00:21:33;;;;;;;46.05;42.75;;;;;;;2.10;88.19;97657.16;5022970;28;20613;-75
2023/03/15 00:23:58;;;;;;;44.65;41.20;;;;;;;2.01;88.12;97659.16;5018477;28;20026;-75
2023/03/15 00:26:24;;;;;;;45.63;42.17;;;;;;;1.96;87.66;97658.16;5009020;28;20034;-75
2023/03/15 00:28:49;;;;;;;48.55;44.97;;;;;;;2.02;87.01;97670.63;5028852;28;20519;-76
2023/03/15 00:31:20;;;;;;;48.30;44.50;;;;;;;1.81;87.80;97660.19;5008497;28;20036;-76
2023/03/15 00:33:46;;;;;;;49.15;45.35;;;;;;;2.10;88.02;97673.88;5039406;28;20033;-76
2023/03/15 00:36:13;;;;;;;44.85;41.40;;;;;;;2.07;87.99;97669.00;5023297;28;20021;-75
2023/03/15 00:38:40;;;;;;;48.13;44.35;;;;;;;1.89;88.05;97673.28;5001792;28;20161;-75
2023/03/15 00:41:13;;;;;;;47.90;43.78;;;;;;;1.64;88.15;97683.63;5017434;28;20021;-75
2023/03/15 00:43:39;;;;;;;46.40;43.05;;;;;;;1.79;88.07;97686.09;5019040;28;20524;-74
2023/03/15 00:46:05;;;;;;;45.58;41.72;;;;;;;1.61;89.51;97693.84;5041780;28;20036;-75
2023/03/15 00:48:31;;;;;;;45.13;42.00;;;;;;;1.80;88.88;97698.34;5012714;28;20467;-75
2023/03/15 00:51:14;;;;;;;45.55;42.03;;;;;;;1.69;88.15;97701.59;5043057;28;20033;-75
2023/03/15 00:53:42;;;;;;;44.10;41.55;;;;;;;2.05;88.26;97694.13;5024246;28;20043;-75
2023/03/15 00:56:12;;;;;;;46.40;42.95;;;;;;;1.83;88.05;97695.28;5016215;28;20459;-75
2023/03/15 00:58:38;;;;;;;42.50;39.80;;;;;;;2.19;87.67;97697.59;5020378;28;20032;-74
2023/03/15 01:01:08;;;;;;;44.17;41.40;;;;;;;2.13;87.80;97695.72;5039044;28;20029;-75
2023/03/15 01:03:36;;;;;;;45.42;42.63;;;;;;;2.25;87.54;97702.91;5024025;28;20058;-75
2023/03/15 01:06:13;;;;;;;43.25;40.80;;;;;;;2.40;86.76;97708.84;4997789;28;20171;-75
2023/03/15 01:08:39;;;;;;;44.70;41.90;;;;;;;2.40;86.18;97716.00;5009677;28;20040;-75
2023/03/15 01:11:06;;;;;;;44.53;41.75;;;;;;;2.49;86.57;97723.56;5020610;28;20028;-75
2023/03/15 01:13:32;;;;;;;43.20;40.42;;;;;;;2.03;87.82;97726.16;5042519;28;20444;-75
2023/03/15 01:15:57;;;;;;;43.42;40.10;;;;;;;1.78;87.98;97734.88;5012161;28;20017;-75
2023/03/15 01:18:22;;;;;;;43.20;39.90;;;;;;;1.71;88.82;97732.22;5050777;28;20037;-75
2023/03/15 01:20:48;;;;;;;45.83;41.78;;;;;;;1.69;88.40;97741.41;5036929;28;20032;-75
2023/03/15 01:23:13;;;;;;;44.05;41.10;;;;;;;1.81;88.83;97737.97;5035516;28;20037;-75
2023/03/15 01:25:39;;;;;;;43.33;40.30;;;;;;;1.95;88.85;97744.13;5036300;28;20515;-75
2023/03/15 01:28:05;;;;;;;45.28;42.35;;;;;;;2.15;87.23;97729.03;5042904;28;20041;-75
2023/03/15 01:30:30;;;;;;;43.65;40.47;;;;;;;2.14;87.35;97732.72;5037119;28;20566;-75
2023/03/15 01:32:56;;;;;;;43.38;40.67;;;;;;;2.22;87.76;97745.00;5026746;28;20404;-77
2023/03/15 01:35:22;;;;;;;43.05;39.42;;;;;;;2.04;88.20;97741.09;5025309;28;20021;-75
2023/03/15 01:37:51;;;;;;;44.80;41.70;;;;;;;2.16;87.63;97756.44;5041298;28;20112;-75
2023/03/15 01:40:17;;;;;;;42.25;39.17;;;;;;;2.23;87.97;97763.38;5021290;28;20029;-76
2023/03/15 01:42:51;;;;;;;44.88;41.45;;;;;;;2.02;87.15;97756.41;5029713;28;20033;-76
2023/03/15 01:45:52;;;;;;;42.45;39.45;;;;;;;2.12;88.46;97760.50;5030612;28;20029;-76
2023/03/15 01:48:20;;;;;;;45.35;41.88;;;;;;;2.17;87.62;97764.19;5014322;28;20041;-76
2023/03/15 01:50:46;;;;;;;46.33;42.85;;;;;;;2.34;86.91;97770.75;5024109;28;20082;-77
2023/03/15 01:53:11;;;;;;;42.70;39.65;;;;;;;2.35;86.98;97764.44;5003544;28;20042;-78
2023/03/15 01:55:37;;;;;;;42.28;39.20;;;;;;;2.29;87.21;97767.88;5011046;28;20108;-77
2023/03/15 01:58:07;;;;;;;45.28;41.97;;;;;;;2.33;87.76;97777.09;5019684;28;20566;-77
2023/03/15 02:00:37;;;;;;;46.53;43.05;;;;;;;2.03;88.06;97779.28;5025479;28;20055;-76
2023/03/15 02:03:13;;;;;;;46.30;42.53;;;;;;;2.16;88.46;97783.81;5006019;28;20032;-75
2023/03/15 02:05:45;;;;;;;45.28;42.17;;;;;;;2.24;88.00;97775.63;5026580;28;20040;-75
2023/03/15 02:08:18;;;;;;;45.83;42.50;;;;;;;2.22;87.84;97780.34;5022342;28;20033;-76
2023/03/15 02:10:48;;;;;;;46.88;43.03;;;;;;;2.02;88.13;97776.84;5021248;28;20453;-77
2023/03/15 02:13:17;;;;;;;48.08;43.30;;;;;;;1.82;88.47;97775.97;5025790;28;20033;-77
2023/03/15 02:15:45;;;;;;;45.38;41.83;;;;;;;1.79;89.19;97786.97;5028534;28;20025;-77
2023/03/15 02:18:13;;;;;;;44.65;40.83;;;;;;;1.53;89.54;97797.47;5023001;28;20036;-77
2023/03/15 02:20:45;;;;;;;50.05;45.35;;;;;;;1.54;88.52;97793.81;5035799;28;20052;-77
2023/03/15 02:23:13;;;;;;;53.65;42.60;;;;;;;1.54;89.16;97799.13;4994112;28;20037;-77
2023/03/15 02:25:55;;;;;;;47.72;42.67;;;;;;;1.63;88.68;97803.25;5023257;28;20029;-77
2023/03/15 02:28:21;;;;;;;48.53;44.38;;;;;;;1.51;89.03;97804.81;5022736;28;20140;-77
2023/03/15 02:30:47;;;;;;;48.70;43.72;;;;;;;1.72;88.90;97807.38;5012921;28;20033;-77
2023/03/15 02:33:24;;;;;;;46.33;42.83;;;;;;;1.55;88.60;97806.06;5025552;28;20044;-77
2023/03/15 02:35:51;;;;;;;49.45;45.28;;;;;;;1.49;88.70;97817.47;5028831;28;20113;-78
2023/03/15 02:38:17;;;;;;;45.83;42.63;;;;;;;1.72;87.84;97821.47;5019633;28;20055;-77
2023/03/15 02:40:45;;;;;;;44.55;41.35;;;;;;;1.65;88.04;97817.13;5025533;28;20170;-77
2023/03/15 02:43:17;;;;;;;47.63;43.47;;;;;;;1.72;87.32;97831.25;5045092;28;20030;-77
2023/03/15 02:45:43;;;;;;;43.55;40.20;;;;;;;1.61;88.29;97831.81;5022127;28;20110;-77
2023/03/15 02:48:09;;;;;;;43.10;39.95;;;;;;;1.58;88.02;97837.50;5003056;28;20070;-77
2023/03/15 02:50:36;;;;;;;40.92;38.08;;;;;;;1.58;88.39;97834.84;5036054;28;20040;-75
2023/03/15 02:53:02;;;;;;;40.38;38.08;;;;;;;1.42;89.06;97835.19;5021390;28;20037;-76
2023/03/15 02:55:31;;;;;;;41.92;38.60;;;;;;;1.42;88.56;97850.06;5025175;28;20078;-76
2023/03/15 02:57:57;;;;;;;38.50;35.35;;;;;;;1.49;89.09;97849.31;5022119;28;20071;-76
2023/03/15 03:00:24;;;;;;;42.05;38.67;;;;;;;1.57;88.97;97860.56;5012188;28;20032;-76
2023/03/15 03:02:51;;;;;;;42.70;39.30;;;;;;;1.54;88.54;97857.50;5022475;28;20017;-76
2023/03/15 03:05:52;;;;;;;43.42;40.30;;;;;;;1.44;87.41;97859.69;5031376;28;20071;-75
2023/03/15 03:09:07;;;;;;;40.38;37.65;;;;;;;1.51;88.50;97856.06;5031559;28;20044;-75
2023/03/15 03:11:41;;;;;;;40.75;37.95;;;;;;;1.58;87.74;97875.47;5049123;28;20171;-76
2023/03/15 03:14:28;;;;;;;41.30;38.22;;;;;;;1.44;88.42;97883.56;5032470;28;20045;-76
2023/03/15 03:17:20;;;;;;;40.20;37.53;;;;;;;1.40;88.49;97894.53;5025294;28;20041;-76
2023/03/15 03:19:46;;;;;;;41.55;38.53;;;;;;;1.34;88.00;97897.16;5038101;28;20045;-76
2023/03/15 03:22:13;;;;;;;38.08;35.28;;;;;;;1.48;87.47;97900.72;5029450;28;20025;-76
2023/03/15 03:24:44;;;;;;;41.28;38.15;;;;;;;1.19;87.97;97902.53;5006863;28;20033;-76
2023/03/15 03:27:13;;;;;;;38.63;36.03;;;;;;;0.94;88.86;97903.97;5005089;28;20033;-76
2023/03/15 03:29:45;;;;;;;41.70;38.78;;;;;;;1.18;88.34;97916.84;5009637;28;20046;-75
2023/03/15 03:32:11;;;;;;;44.05;40.83;;;;;;;0.96;88.68;97907.25;5009172;28;20127;-76
2023/03/15 03:34:38;;;;;;;43.40;40.38;;;;;;;1.02;88.64;97905.69;5008303;28;20082;-76
2023/03/15 03:37:03;;;;;;;41.22;38.33;;;;;;;1.24;88.09;97921.34;5021778;28;20029;-74
2023/03/15 03:39:47;;;;;;;42.55;39.45;;;;;;;1.22;87.60;97928.69;5040611;28;20029;-75
2023/03/15 03:42:14;;;;;;;42.60;39.38;;;;;;;1.29;88.08;97929.56;5009320;28;20045;-75
2023/03/15 03:44:42;;;;;;;38.80;36.13;;;;;;;1.21;87.24;97935.00;5031911;28;20033;-74
2023/03/15 03:47:08;;;;;;;42.85;39.83;;;;;;;1.23;87.28;97940.94;5037581;28;20029;-74
2023/03/15 03:49:33;;;;;;;37.00;34.20;;;;;;;1.11;87.80;97942.47;5040819;28;20443;-75
2023/03/15 03:52:00;;;;;;;41.10;38.38;;;;;;;1.32;87.11;97950.41;5044699;28;20056;-75
2023/03/15 03:54:26;;;;;;;40.85;37.75;;;;;;;1.32;87.45;97957.53;5024822;28;20020;-75
2023/03/15 03:56:51;;;;;;;40.25;37.47;;;;;;;1.21;87.24;97950.91;5004902;28;20025;-75
2023/03/15 03:59:17;;;;;;;39.80;36.55;;;;;;;1.12;87.51;97965.31;5004983;28;20026;-74
2023/03/15 04:01:55;;;;;;;40.40;36.97;;;;;;;0.65;88.48;97965.06;5012142;28;20128;-75
2023/03/15 04:04:20;;;;;;;39.38;36.53;;;;;;;0.82;87.85;97955.84;5026865;28;20120;-73
2023/03/15 04:06:46;;;;;;;39.72;36.78;;;;;;;0.97;87.22;97966.41;5005101;28;20044;-73
2023/03/15 04:09:15;;;;;;;40.65;37.75;;;;;;;0.97;88.27;97969.06;5003132;28;20124;-73
2023/03/15 04:11:43;;;;;;;42.38;39.35;;;;;;;0.78;88.72;97977.63;5024531;28;20030;-73
2023/03/15 04:14:10;;;;;;;37.83;34.42;;;;;;;0.70;88.96;97981.22;5003992;28;20033;-74
2023/03/15 04:16:37;;;;;;;41.28;38.22;;;;;;;0.60;88.82;97978.06;5030607;28;20025;-73
2023/03/15 04:19:06;;;;;;;38.00;35.08;;;;;;;0.41;89.42;97981.28;5027845;28;20040;-74
2023/03/15 04:21:33;;;;;;;43.47;39.58;;;;;;;0.32;89.17;98003.59;5005264;28;20033;-74
2023/03/15 04:24:17;;;;;;;41.97;38.53;;;;;;;0.12;90.11;98005.97;5023514;28;20058;-75
2023/03/15 04:27:01;;;;;;;39.80;36.00;;;;;;;0.06;89.79;98009.34;5051798;28;20094;-76
2023/03/15 04:29:56;;;;;;;41.50;37.80;;;;;;;-0.06;90.35;98014.28;5014190;28;20447;-77
2023/03/15 04:32:41;;;;;;;38.72;35.53;;;;;;;-0.01;90.04;98025.16;5046853;28;20079;-77
2023/03/15 04:35:29;;;;;;;38.10;35.22;;;;;;;-0.03;89.71;98021.88;5016630;28;20025;-76
2023/03/15 04:38:18;;;;;;;37.90;34.92;;;;;;;0.06;89.78;98019.94;5015776;28;20512;-76
2023/03/15 04:40:54;;;;;;;41.35;38.17;;;;;;;0.37;89.35;98017.09;5016627;28;20113;-76
2023/03/15 04:43:49;;;;;;;37.53;34.90;;;;;;;0.28;89.25;98034.09;5031312;28;20116;-75
2023/03/15 04:46:23;;;;;;;37.28;34.67;;;;;;;0.52;88.99;98028.47;5025861;28;20098;-75
2023/03/15 04:49:15;;;;;;;37.25;34.53;;;;;;;0.46;88.15;98027.41;5035332;28;20071;-77
2023/03/15 04:51:56;;;;;;;36.92;34.28;;;;;;;0.49;88.44;98027.03;5036751;28;20040;-76
2023/03/15 04:54:38;;;;;;;34.50;32.00;;;;;;;0.36;89.22;98031.34;5037937;28;20118;-75
2023/03/15 04:57:03;;;;;;;37.58;34.65;;;;;;;0.49;88.18;98042.13;5025723;28;20510;-76
2023/03/15 04:59:40;;;;;;;38.08;34.95;;;;;;;0.47;88.84;98034.34;5042724;28;20041;-76
2023/03/15 05:02:29;;;;;;;37.80;34.97;;;;;;;0.53;87.66;98051.31;5017019;28;20043;-75
2023/03/15 05:05:17;;;;;;;42.20;39.00;;;;;;;0.26;88.47;98049.31;5020805;28;20030;-76
2023/03/15 05:08:15;;;;;;;40.35;37.17;;;;;;;0.19;88.45;98061.69;5023091;28;20531;-75
2023/03/15 05:11:12;;;;;;;41.63;38.58;;;;;;;0.41;88.45;98056.28;5036779;28;20029;-76
2023/03/15 05:14:16;;;;;;;40.70;37.55;;;;;;;0.45;88.18;98056.72;4982254;28;20088;-75
2023/03/15 05:16:54;;;;;;;;;;;;;;;0.28;88.02;98065.88;4940873;29;20054;-75
2023/03/15 05:19:36;;;;;;;38.35;35.40;;;;;;;0.39;88.54;98068.06;5023454;28;19947;-76
2023/03/15 05:22:24;;;;;;;42.27;38.73;;;;;;;0.46;88.55;98067.16;5026702;28;20045;-76
2023/03/15 05:25:14;;;;;;;41.92;38.63;;;;;;;0.45;88.94;98072.59;5017767;28;20029;-76
2023/03/15 05:27:57;;;;;;;45.35;41.65;;;;;;;0.47;88.50;98066.13;5027024;28;20110;-76
2023/03/15 05:30:45;;;;;;;47.47;43.63;;;;;;;0.46;88.16;98076.91;5026045;28;20521;-75
2023/03/15 05:33:30;;;;;;;49.35;45.42;;;;;;;0.51;88.17;98077.19;5021965;28;20052;-75
2023/03/15 05:36:22;;;;;;;48.55;44.90;;;;;;;0.53;88.58;98088.41;5039560;28;20471;-76
2023/03/15 05:39:07;;;;;;;47.00;43.20;;;;;;;0.59;88.21;98092.97;5009204;28;20045;-76
2023/03/15 05:41:56;;;;;;;46.10;41.97;;;;;;;0.61;89.02;98106.84;5037269;28;20446;-75
2023/03/15 05:44:36;;;;;;;45.95;42.20;;;;;;;0.79;88.66;98104.66;5042138;23;20368;-71
2023/03/15 05:47:21;;;;;;;46.85;42.58;;;;;;;0.53;89.40;98114.91;5032759;28;20041;-71
2023/03/15 05:50:27;;;;;;;45.15;41.25;;;;;;;0.81;88.90;98109.75;5012073;28;20619;-74
2023/03/15 05:53:10;;;;;;;47.33;42.70;;;;;;;0.64;89.44;98111.78;5019124;28;20404;-73
2023/03/15 05:55:56;;;;;;;45.88;41.83;;;;;;;0.92;87.97;98114.59;5016124;28;20038;-73
2023/03/15 05:58:40;;;;;;;44.88;41.45;;;;;;;1.08;87.70;98122.31;5012315;28;20111;-73
2023/03/15 06:01:35;;;;;;;48.03;44.17;;;;;;;1.15;87.98;98132.00;5011322;28;20064;-73
2023/03/15 06:04:11;;;;;;;47.40;43.10;;;;;;;1.07;88.12;98131.31;5009399;28;20034;-72
2023/03/15 06:06:36;;;;;;;48.83;44.72;;;;;;;0.98;88.47;98124.47;5011842;28;20096;-73
2023/03/15 06:09:04;;;;;;;51.63;47.00;;;;;;;0.98;87.27;98133.22;4996346;28;20052;-74
2023/03/15 06:11:30;;;;;;;49.65;45.35;;;;;;;0.91;88.81;98142.91;5012868;28;20057;-76
2023/03/15 06:13:58;;;;;;;54.80;49.97;;;;;;;0.99;88.49;98132.22;5012848;28;20021;-72
2023/03/15 06:16:45;;;;;;;54.95;50.15;;;;;;;0.95;88.43;98132.78;4994767;28;20036;-72
2023/03/15 06:19:10;;;;;;;54.50;49.50;;;;;;;1.13;88.02;98134.03;5018545;28;20121;-73
2023/03/15 06:21:36;;;;;;;56.20;51.47;;;;;;;1.21;87.74;98135.75;5013197;28;20112;-72
2023/03/15 06:24:07;;;;;;;74.38;64.03;;;;;;;1.22;87.39;98146.16;5012420;28;20042;-71
2023/03/15 06:26:33;;;;;;;60.28;54.42;;;;;;;0.95;88.46;98164.59;4996096;28;20117;-72
2023/03/15 06:29:01;;;;;;;54.95;50.58;;;;;;;0.76;89.16;98154.53;4996559;28;20034;-72
2023/03/15 06:31:27;;;;;;;57.90;52.80;;;;;;;1.12;88.52;98158.88;4996177;28;20040;-71
2023/03/15 06:34:00;;;;;;;54.45;49.80;;;;;;;0.97;87.43;98167.88;5011699;28;20026;-72
2023/03/15 06:36:26;;;;;;;52.40;47.92;;;;;;;1.08;87.93;98170.88;5009296;28;20117;-73
2023/03/15 06:38:53;;;;;;;51.08;46.78;;;;;;;1.30;88.00;98169.94;4976033;28;20065;-73
2023/03/15 06:41:20;;;;;;;54.53;49.85;;;;;;;1.23;87.11;98174.34;5012355;28;20087;-73
2023/03/15 06:43:46;;;;;;;49.47;45.40;;;;;;;1.18;87.70;98171.41;4995883;28;20405;-72
2023/03/15 06:46:12;;;;;;;52.65;48.67;;;;;;;1.44;87.98;98175.38;5008645;28;20042;-72
2023/03/15 06:48:38;;;;;;;52.85;48.40;;;;;;;1.38;88.18;98169.81;5025414;28;20400;-72
2023/03/15 06:51:05;;;;;;;55.33;50.65;;;;;;;1.54;87.78;98170.59;4992714;28;20563;-72
2023/03/15 06:53:31;;;;;;;54.05;49.40;;;;;;;1.15;88.17;98171.78;5011694;28;20079;-73
2023/03/15 06:55:57;;;;;;;55.17;50.35;;;;;;;1.28;88.42;98176.44;4979382;28;20040;-73
2023/03/15 06:58:22;;;;;;;53.85;48.63;;;;;;;1.42;86.79;98182.72;4995519;28;20034;-72
2023/03/15 07:00:48;;;;;;;53.53;49.13;;;;;;;1.49;86.71;98188.91;4995504;28;20037;-72
2023/03/15 07:03:14;;;;;;;50.65;46.25;;;;;;;1.52;87.50;98193.84;4995375;28;20025;-72
2023/03/15 07:05:39;;;;;;;54.17;49.80;;;;;;;1.65;88.38;98191.34;5011689;28;20528;-75
2023/03/15 07:08:05;;;;;;;54.72;50.28;;;;;;;1.68;87.06;98189.09;4995441;28;20108;-72
2023/03/15 07:10:30;;;;;;;56.30;52.10;;;;;;;1.88;86.51;98184.84;5028247;28;20113;-74
2023/03/15 07:12:56;;;;;;;56.25;51.58;;;;;;;1.87;86.40;98187.66;5012721;28;20029;-74
2023/03/15 07:15:22;;;;;;;53.35;49.08;;;;;;;2.05;86.38;98182.75;5012837;28;20029;-73
2023/03/15 07:17:47;;;;;;;154.23;137.48;;;;;;;1.73;87.08;98196.50;5011611;28;20393;-72
2023/03/15 07:20:13;;;;;;;65.03;59.42;;;;;;;1.95;86.72;98190.22;5011865;28;20034;-72
2023/03/15 07:22:38;;;;;;;53.88;49.70;;;;;;;1.99;86.42;98191.47;5011619;28;20480;-72
2023/03/15 07:25:06;;;;;;;62.40;56.97;;;;;;;1.95;86.55;98179.59;5011399;28;20029;-72
2023/03/15 07:27:31;;;;;;;82.32;75.40;;;;;;;1.83;86.43;98189.88;5012661;28;20030;-72
2023/03/15 07:29:57;;;;;;;73.93;67.78;;;;;;;1.81;87.60;98191.09;5012693;28;20397;-72
2023/03/15 07:32:22;;;;;;;67.65;61.97;;;;;;;2.12;86.04;98194.25;5011380;28;20104;-72
2023/03/15 07:34:48;;;;;;;57.00;52.10;;;;;;;2.02;85.56;98185.78;5012322;28;20030;-75
2023/03/15 07:37:13;;;;;;;54.33;50.35;;;;;;;2.12;86.42;98191.59;5011571;28;20400;-72
2023/03/15 07:39:40;;;;;;;52.25;48.63;;;;;;;2.17;85.39;98199.78;5011291;28;20037;-72
2023/03/15 07:42:06;;;;;;;49.13;45.45;;;;;;;2.07;85.60;98205.44;5011356;28;20029;-72
2023/03/15 07:44:38;;;;;;;52.92;49.28;;;;;;;2.08;85.91;98198.28;5005373;28;20112;-73
2023/03/15 07:47:03;;;;;;;51.95;48.08;;;;;;;2.41;85.26;98196.72;5015949;28;20124;-72
2023/03/15 07:49:30;;;;;;;49.40;45.40;;;;;;;2.43;86.26;98200.00;5012358;28;20032;-73
2023/03/15 07:51:55;;;;;;;50.28;46.50;;;;;;;2.49;85.21;98183.31;5012251;28;20415;-72
2023/03/15 07:54:21;;;;;;;52.83;48.63;;;;;;;2.35;85.76;98197.50;5011934;28;20026;-73
2023/03/15 07:56:46;;;;;;;52.90;49.40;;;;;;;2.25;85.50;98202.31;5012134;28;20037;-73
2023/03/15 07:59:11;;;;;;;48.47;44.92;;;;;;;2.29;85.27;98197.47;5011002;28;20052;-72
2023/03/15 08:01:37;;;;;;;48.58;44.72;;;;;;;2.40;84.33;98195.09;5012058;28;20116;-73
2023/03/15 08:04:02;;;;;;;46.67;43.15;;;;;;;2.53;83.56;98184.56;4994408;28;20018;-72
2023/03/15 08:06:28;;;;;;;44.80;41.45;;;;;;;2.37;84.01;98184.84;4997247;28;20042;-73
2023/03/15 08:08:53;;;;;;;45.78;41.95;;;;;;;2.44;84.11;98188.38;5009797;28;20034;-72
2023/03/15 08:11:19;;;;;;;51.15;47.03;;;;;;;2.36;85.27;98188.50;4994431;28;20121;-72
2023/03/15 08:13:44;;;;;;;45.50;42.25;;;;;;;2.44;84.12;98191.03;5011815;28;20076;-73
2023/03/15 08:16:09;;;;;;;44.35;41.08;;;;;;;2.46;84.06;98204.94;5010629;28;20033;-73
2023/03/15 08:18:35;;;;;;;44.00;40.70;;;;;;;2.27;83.42;98204.78;5011979;28;20022;-73
2023/03/15 08:21:00;;;;;;;46.08;42.65;;;;;;;2.50;83.65;98216.84;5010659;28;20041;-73
2023/03/15 08:23:26;;;;;;;41.20;38.28;;;;;;;2.68;82.46;98211.84;5011810;28;20026;-73
2023/03/15 08:25:51;;;;;;;43.97;40.72;;;;;;;2.73;83.07;98201.44;4994165;28;20500;-72
2023/03/15 08:28:17;;;;;;;44.30;40.80;;;;;;;2.65;84.11;98214.91;5011849;28;20018;-72
2023/03/15 08:30:42;;;;;;;40.20;37.40;;;;;;;2.87;82.93;98217.50;5023899;28;20040;-72
2023/03/15 08:33:08;;;;;;;44.22;40.67;;;;;;;3.22;83.42;98213.81;5010760;28;20113;-73
2023/03/15 08:35:33;;;;;;;44.88;41.58;;;;;;;3.14;82.78;98219.28;5010304;28;20026;-73
2023/03/15 08:38:01;;;;;;;43.70;40.60;;;;;;;2.91;83.65;98219.59;5007014;28;20494;-73
2023/03/15 08:40:27;;;;;;;40.70;37.72;;;;;;;2.56;82.69;98236.50;5001596;28;20038;-73
2023/03/15 08:42:53;;;;;;;43.22;39.92;;;;;;;2.80;84.73;98218.28;5014403;28;20470;-73
2023/03/15 08:45:19;;;;;;;42.72;39.75;;;;;;;2.49;84.02;98225.84;5013919;28;20045;-73
2023/03/15 08:47:45;;;;;;;42.50;39.20;;;;;;;2.66;84.27;98231.69;4997534;28;20034;-73
2023/03/15 08:50:12;;;;;;;42.60;39.47;;;;;;;2.60;83.84;98227.97;5018098;28;20033;-72
2023/03/15 08:52:37;;;;;;;46.92;43.35;;;;;;;2.67;84.57;98215.53;5017025;28;20033;-73
2023/03/15 08:55:03;;;;;;;47.65;44.03;;;;;;;2.61;84.83;98218.94;5013921;28;20038;-74
2023/03/15 08:57:31;;;;;;;47.03;43.50;;;;;;;2.85;83.45;98220.34;5014139;28;20432;-73
2023/03/15 09:00:00;;;;;;;50.50;46.85;;;;;;;2.96;83.01;98214.50;5014270;28;20037;-73
2023/03/15 09:02:28;;;;;;;52.50;48.35;;;;;;;2.83;83.53;98213.56;5014189;28;20037;-73
2023/03/15 09:04:54;;;;;;;49.78;46.05;;;;;;;2.37;84.36;98227.38;5014821;28;20030;-73
2023/03/15 09:07:21;;;;;;;49.70;46.15;;;;;;;2.54;84.43;98223.44;4997574;28;20076;-74
2023/03/15 09:09:47;;;;;;;55.85;51.55;;;;;;;2.63;84.40;98216.94;5013870;28;20052;-73
2023/03/15 09:12:15;;;;;;;53.17;48.95;;;;;;;2.55;84.02;98230.38;5015011;28;20030;-75
2023/03/15 09:14:41;;;;;;;55.97;51.30;;;;;;;2.65;85.15;98227.38;5027009;28;20038;-75
2023/03/15 09:17:07;;;;;;;45.78;42.63;;;;;;;2.45;83.61;98237.03;5013727;28;20028;-75
2023/03/15 09:19:33;;;;;;;44.38;41.33;;;;;;;2.31;84.85;98238.75;5013761;28;20066;-74
2023/03/15 09:21:58;;;;;;;47.03;43.35;;;;;;;2.20;86.15;98257.03;5013462;28;20441;-75
2023/03/15 09:24:23;;;;;;;46.60;43.42;;;;;;;2.22;85.59;98261.13;5013349;28;20405;-74
2023/03/15 09:26:49;;;;;;;47.38;44.30;;;;;;;2.04;84.75;98261.59;5014825;28;20112;-75
2023/03/15 09:29:14;;;;;;;45.03;42.17;;;;;;;1.82;85.18;98265.22;4996003;28;20088;-75
2023/03/15 09:31:40;;;;;;;44.08;40.95;;;;;;;1.60;86.52;98260.06;5013600;28;20431;-75
2023/03/15 09:34:06;;;;;;;45.67;42.47;;;;;;;1.45;87.56;98277.84;5003276;28;20116;-75
2023/03/15 09:36:32;;;;;;;45.92;43.22;;;;;;;1.53;87.31;98275.09;5012450;28;20041;-75
2023/03/15 09:39:00;;;;;;;43.67;40.97;;;;;;;1.42;86.89;98279.03;5013206;28;20088;-75
2023/03/15 09:41:33;;;;;;;48.03;44.55;;;;;;;1.53;87.80;98277.75;5012129;28;20033;-75
2023/03/15 09:44:14;;;;;;;47.28;44.13;;;;;;;1.50;87.43;98288.72;4994149;28;20104;-75
2023/03/15 09:46:45;;;;;;;48.05;45.05;;;;;;;1.42;88.46;98274.53;5012990;28;20034;-75
2023/03/15 09:49:20;;;;;;;47.38;44.58;;;;;;;1.40;87.22;98284.53;5011926;28;20042;-75
2023/03/15 09:51:54;;;;;;;47.72;44.70;;;;;;;1.55;87.00;98287.16;5012861;28;20036;-74
2023/03/15 09:54:31;;;;;;;46.92;44.03;;;;;;;1.69;87.47;98290.78;4996399;28;20037;-75
2023/03/15 09:57:08;;;;;;;47.42;44.40;;;;;;;1.67;87.03;98298.13;4996654;28;20101;-75
2023/03/15 09:59:36;;;;;;;46.67;43.78;;;;;;;1.67;86.51;98300.78;5001937;28;20034;-75
2023/03/15 10:02:31;;;;;;;47.80;44.92;;;;;;;1.80;87.83;98303.59;4996103;28;20032;-75
2023/03/15 10:05:17;;;;;;;46.40;43.80;;;;;;;1.74;87.27;98294.56;5011206;28;20050;-75
2023/03/15 10:07:43;;;;;;;49.70;46.80;;;;;;;1.62;88.11;98300.50;5012409;28;20049;-75
2023/03/15 10:10:18;;;;;;;45.75;43.13;;;;;;;1.70;88.37;98306.56;5005875;28;20029;-75
2023/03/15 10:12:51;;;;;;;44.58;42.33;;;;;;;1.63;86.44;98299.50;4997345;28;20057;-75
2023/03/15 10:15:40;;;;;;;45.83;43.28;;;;;;;1.63;88.18;98303.00;5001778;28;20406;-74
2023/03/15 10:18:20;;;;;;;44.20;41.63;;;;;;;1.80;87.31;98304.41;4995371;28;20038;-75
2023/03/15 10:20:55;;;;;;;46.33;43.83;;;;;;;1.65;86.66;98305.44;5012660;28;20460;-75
2023/03/15 10:23:35;;;;;;;46.55;43.85;;;;;;;1.58;87.89;98309.84;5012423;28;20052;-75
2023/03/15 10:26:03;;;;;;;47.75;44.60;;;;;;;1.61;86.63;98306.84;5012336;28;20067;-75
2023/03/15 10:28:36;;;;;;;44.22;41.67;;;;;;;1.68;86.51;98307.75;5012398;28;20108;-76
2023/03/15 10:31:10;;;;;;;45.40;42.75;;;;;;;1.76;87.36;98315.59;5012406;28;20030;-75
2023/03/15 10:33:37;;;;;;;41.38;38.88;;;;;;;1.71;86.77;98310.00;4996148;28;20374;-76
2023/03/15 10:36:11;;;;;;;42.47;39.97;;;;;;;1.75;86.16;98295.38;5012250;28;20026;-76
2023/03/15 10:38:37;;;;;;;40.35;38.05;;;;;;;1.82;85.75;98306.91;5013529;28;20042;-74
2023/03/15 10:41:05;;;;;;;38.78;36.78;;;;;;;1.84;85.76;98304.88;4996346;28;20036;-76
2023/03/15 10:43:35;;;;;;;39.55;37.35;;;;;;;1.94;84.78;98300.91;5012001;28;20486;-76
2023/03/15 10:46:20;;;;;;;42.97;40.33;;;;;;;2.12;85.71;98316.44;4995812;28;20104;-75
2023/03/15 10:48:59;;;;;;;39.10;37.17;;;;;;;2.00;83.88;98299.34;5025333;28;20048;-75
2023/03/15 10:51:28;;;;;;;45.25;42.65;;;;;;;2.31;85.36;98315.00;4996026;28;20053;-76
2023/03/15 10:53:57;;;;;;;41.45;39.13;;;;;;;2.37;84.52;98315.06;4996431;28;20100;-76
2023/03/15 10:56:25;;;;;;;41.33;39.03;;;;;;;2.37;84.50;98312.41;5014063;28;20037;-76
2023/03/15 10:58:53;;;;;;;41.33;38.67;;;;;;;2.27;84.09;98303.91;5013166;28;20116;-75
2023/03/15 11:01:27;;;;;;;36.35;34.28;;;;;;;2.18;84.31;98314.84;5012855;28;20042;-76
2023/03/15 11:04:17;;;;;;;40.03;37.60;;;;;;;2.17;83.52;98315.88;4997445;28;20034;-76
2023/03/15 11:06:46;;;;;;;41.05;38.80;;;;;;;2.18;83.72;98322.81;5011576;28;20117;-75
2023/03/15 11:09:15;;;;;;;43.20;40.90;;;;;;;2.26;84.95;98310.25;5011784;28;20485;-75
2023/03/15 11:12:05;;;;;;;39.25;37.22;;;;;;;2.10;85.79;98321.13;4995279;28;20041;-75
2023/03/15 11:14:33;;;;;;;41.60;39.40;;;;;;;2.02;86.05;98297.31;4994922;28;20042;-75
2023/03/15 11:17:00;;;;;;;39.60;37.40;;;;;;;2.10;85.04;98310.50;5011550;28;20022;-75
2023/03/15 11:19:31;;;;;;;47.42;44.72;;;;;;;2.17;85.37;98303.38;4995291;28;20045;-74
2023/03/15 11:21:58;;;;;;;43.53;41.13;;;;;;;2.20;86.42;98313.63;5027977;28;20037;-75
2023/03/15 11:24:27;;;;;;;44.92;42.42;;;;;;;2.28;85.61;98312.72;5011442;28;20033;-74
2023/03/15 11:26:55;;;;;;;44.60;42.38;;;;;;;2.32;86.61;98308.66;4994738;28;20041;-75
2023/03/15 11:29:31;;;;;;;45.47;43.03;;;;;;;2.20;86.61;98324.28;5006113;28;20028;-75
2023/03/15 11:31:59;;;;;;;49.20;46.28;;;;;;;2.33;86.46;98327.09;5011479;28;20046;-75
2023/03/15 11:34:36;;;;;;;48.08;45.42;;;;;;;2.31;85.14;98318.44;4994889;28;20026;-75
2023/03/15 11:37:05;;;;;;;47.95;45.40;;;;;;;2.33;85.93;98308.47;5011308;28;20477;-75
2023/03/15 11:39:50;;;;;;;47.10;44.55;;;;;;;2.33;85.94;98315.63;5014871;28;20025;-75
2023/03/15 11:42:29;;;;;;;46.90;44.30;;;;;;;2.42;84.95;98306.50;5007623;28;20034;-75
2023/03/15 11:44:59;;;;;;;47.53;44.70;;;;;;;2.53;87.11;98306.81;5006700;28;20492;-74